createdAt,value
2022-09-09T00:02:11.381Z,5.47
2022-09-09T00:05:20.737Z,6.07
2022-09-09T00:08:15.291Z,5.47
2022-09-09T00:11:06.314Z,5.55
2022-09-09T00:13:55.850Z,5.47
2022-09-09T00:16:46.350Z,5.68
2022-09-09T00:19:44.015Z,6.07
2022-09-09T00:22:33.357Z,5.72
2022-09-09T00:25:34.299Z,5.78
2022-09-09T00:28:24.212Z,6.10
2022-09-09T00:31:29.757Z,6.22
2022-09-09T00:34:19.430Z,6.90
2022-09-09T00:37:05.591Z,6.07
2022-09-09T00:39:55.807Z,6.77
2022-09-09T00:42:45.676Z,6.00
2022-09-09T00:45:58.661Z,6.30
2022-09-09T00:49:00.942Z,6.17
2022-09-09T00:52:09.146Z,6.30
2022-09-09T00:55:12.822Z,6.30
2022-09-09T00:57:59.004Z,6.95
2022-09-09T01:00:49.975Z,6.85
2022-09-09T01:03:54.338Z,7.25
2022-09-09T01:06:40.753Z,6.78
2022-09-09T01:09:52.322Z,6.90
2022-09-09T01:12:44.711Z,7.13
2022-09-09T01:15:37.765Z,6.88
2022-09-09T01:18:28.933Z,7.90
2022-09-09T01:21:40.718Z,7.47
2022-09-09T01:24:49.816Z,7.22
2022-09-09T01:28:01.669Z,7.80
2022-09-09T01:30:47.921Z,7.70
2022-09-09T01:33:36.926Z,7.67
2022-09-09T01:36:41.013Z,7.82
2022-09-09T01:39:27.377Z,7.47
2022-09-09T01:42:20.511Z,7.55
2022-09-09T01:45:07.778Z,7.93
2022-09-09T01:47:54.670Z,7.95
2022-09-09T01:50:57.048Z,7.85
2022-09-09T01:53:44.835Z,8.05
2022-09-09T01:56:50.287Z,8.00
2022-09-09T01:59:48.370Z,7.35
2022-09-09T02:02:48.574Z,8.10
2022-09-09T02:05:50.784Z,8.60
2022-09-09T02:08:52.318Z,8.23
2022-09-09T02:11:38.676Z,8.03
2022-09-09T02:14:48.187Z,8.05
2022-09-09T02:17:37.008Z,8.00
2022-09-09T02:20:34.917Z,7.95
2022-09-09T02:23:21.917Z,8.45
2022-09-09T02:26:15.904Z,8.88
2022-09-09T02:29:05.047Z,8.88
2022-09-09T02:31:56.145Z,8.60
2022-09-09T02:34:51.258Z,9.10
2022-09-09T02:37:43.047Z,9.60
2022-09-09T02:40:28.646Z,9.23
2022-09-09T02:43:19.993Z,10.45
2022-09-09T02:46:30.941Z,10.20
2022-09-09T02:49:50.485Z,10.38
2022-09-09T02:52:47.153Z,10.13
2022-09-09T02:55:46.307Z,10.50
2022-09-09T02:58:33.237Z,9.95
2022-09-09T03:01:24.435Z,10.15
2022-09-09T03:04:10.984Z,10.40
2022-09-09T03:06:59.323Z,10.15
2022-09-09T03:09:45.667Z,10.88
2022-09-09T03:12:31.438Z,10.15
2022-09-09T03:15:18.104Z,10.05
2022-09-09T03:18:05.124Z,9.98
2022-09-09T03:20:52.042Z,9.75
2022-09-09T03:23:39.607Z,10.18
2022-09-09T03:26:25.454Z,9.32
2022-09-09T03:29:13.193Z,10.05
2022-09-09T03:31:59.769Z,10.30
2022-09-09T03:34:48.410Z,10.30
2022-09-09T03:37:35.174Z,10.38
2022-09-09T03:40:21.141Z,10.30
2022-09-09T03:43:07.420Z,10.40
2022-09-09T03:45:57.951Z,10.15
2022-09-09T03:48:45.570Z,10.13
2022-09-09T03:51:31.566Z,9.73
2022-09-09T03:54:17.001Z,8.90
2022-09-09T03:57:04.018Z,8.73
2022-09-09T03:59:50.259Z,8.43
2022-09-09T04:02:36.077Z,8.23
2022-09-09T04:05:22.319Z,8.32
2022-09-09T04:08:09.260Z,7.97
2022-09-09T04:10:58.094Z,7.68
2022-09-09T04:13:45.403Z,7.88
2022-09-09T04:16:33.930Z,7.40
2022-09-09T04:19:20.123Z,7.75
2022-09-09T04:22:05.638Z,7.63
2022-09-09T04:24:52.502Z,8.02
2022-09-09T04:27:39.902Z,7.88
2022-09-09T04:30:28.346Z,8.07
2022-09-09T04:33:15.492Z,7.65
2022-09-09T04:36:02.727Z,8.30
2022-09-09T04:38:52.173Z,8.05
2022-09-09T04:41:38.979Z,8.85
2022-09-09T04:44:25.942Z,8.23
2022-09-09T04:47:15.308Z,8.53
2022-09-09T04:50:01.564Z,8.50
2022-09-09T04:52:48.490Z,9.10
2022-09-09T04:55:36.085Z,8.93
2022-09-09T04:58:23.437Z,9.15
2022-09-09T05:01:19.434Z,8.30
2022-09-09T05:04:05.474Z,9.10
2022-09-09T05:06:53.828Z,8.87
2022-09-09T05:09:39.949Z,9.60
2022-09-09T05:12:26.783Z,8.40
2022-09-09T05:15:13.427Z,9.68
2022-09-09T05:18:01.568Z,9.10
2022-09-09T05:20:50.539Z,8.85
2022-09-09T05:23:36.799Z,9.23
2022-09-09T05:26:23.883Z,9.07
2022-09-09T05:29:11.929Z,9.02
2022-09-09T05:31:58.062Z,8.83
2022-09-09T05:34:44.291Z,8.60
2022-09-09T05:37:31.472Z,8.70
2022-09-09T05:40:18.649Z,8.57
2022-09-09T05:43:05.330Z,8.48
2022-09-09T05:46:09.513Z,8.57
2022-09-09T05:48:56.069Z,8.43
2022-09-09T05:51:48.199Z,8.57
2022-09-09T05:54:38.469Z,8.30
2022-09-09T05:57:24.292Z,8.60
2022-09-09T06:00:11.244Z,8.27
2022-09-09T06:02:59.920Z,7.65
2022-09-09T06:05:45.845Z,7.60
2022-09-09T06:08:33.551Z,7.82
2022-09-09T06:11:22.649Z,7.90
2022-09-09T06:14:09.192Z,7.60
2022-09-09T06:16:57.688Z,7.80
2022-09-09T06:19:48.027Z,7.30
2022-09-09T06:22:33.507Z,7.13
2022-09-09T06:25:19.445Z,7.05
2022-09-09T06:28:05.392Z,6.90
2022-09-09T06:31:02.090Z,7.15
2022-09-09T06:33:50.923Z,7.28
2022-09-09T06:36:40.318Z,7.20
2022-09-09T06:39:26.886Z,7.68
2022-09-09T06:42:13.118Z,7.50
2022-09-09T06:45:11.374Z,8.35
2022-09-09T06:48:05.050Z,8.13
2022-09-09T06:50:51.058Z,8.18
2022-09-09T06:53:39.179Z,7.43
2022-09-09T06:56:33.634Z,7.18
2022-09-09T06:59:23.804Z,7.30
2022-09-09T07:02:12.269Z,6.83
2022-09-09T07:04:59.735Z,6.93
2022-09-09T07:07:45.833Z,6.22
2022-09-09T07:10:35.315Z,6.30
2022-09-09T07:13:28.420Z,5.97
2022-09-09T07:16:18.771Z,5.57
2022-09-09T07:19:05.804Z,1.60
2022-09-09T07:21:51.883Z,0.80
2022-09-09T07:24:40.037Z,0.60
2022-09-09T07:27:26.716Z,0.50
2022-09-09T07:30:19.291Z,0.20
2022-09-09T07:33:08.400Z,0.30
2022-09-09T07:35:55.483Z,0.30
2022-09-09T07:38:46.722Z,0.32
2022-09-09T07:41:44.100Z,0.30
2022-09-09T07:44:33.237Z,0.30
2022-09-09T07:47:31.500Z,0.40
2022-09-09T07:50:17.543Z,0.30
2022-09-09T07:53:06.016Z,0.30
2022-09-09T07:55:52.261Z,0.30
2022-09-09T07:58:40.611Z,0.23
2022-09-09T08:01:33.766Z,0.32
2022-09-09T08:04:21.826Z,0.20
2022-09-09T08:07:07.656Z,0.20
2022-09-09T08:10:00.549Z,0.20
2022-09-09T08:13:07.853Z,0.22
2022-09-09T08:16:03.937Z,0.10
2022-09-09T08:18:51.294Z,0.30
2022-09-09T08:21:40.993Z,0.40
2022-09-09T08:24:27.552Z,0.17
2022-09-09T08:27:13.883Z,0.25
2022-09-09T08:30:00.024Z,0.30
2022-09-09T08:32:49.617Z,0.27
2022-09-09T08:35:38.711Z,0.30
2022-09-09T08:38:25.667Z,0.20
2022-09-09T08:41:26.874Z,0.20
2022-09-09T08:44:50.536Z,0.30
2022-09-09T08:47:53.539Z,0.30
2022-09-09T08:50:44.251Z,0.20
2022-09-09T08:53:54.403Z,0.20
2022-09-09T08:56:42.468Z,0.10
2022-09-09T08:59:28.301Z,0.20
2022-09-09T09:02:25.990Z,0.30
2022-09-09T09:05:32.788Z,0.40
2022-09-09T09:08:23.909Z,0.30
2022-09-09T09:11:10.316Z,0.30
2022-09-09T09:14:03.662Z,0.20
2022-09-09T09:17:04.660Z,0.30
2022-09-09T09:19:52.156Z,0.45
2022-09-09T09:22:42.924Z,0.30
2022-09-09T09:25:36.328Z,0.28
2022-09-09T09:28:28.067Z,0.30
2022-09-09T09:31:21.728Z,0.32
2022-09-09T09:34:12.239Z,0.40
2022-09-09T09:37:06.291Z,0.40
2022-09-09T09:40:08.788Z,0.40
2022-09-09T09:43:00.522Z,0.40
2022-09-09T09:46:06.791Z,0.57
2022-09-09T09:49:02.366Z,0.40
2022-09-09T09:51:49.849Z,0.30
2022-09-09T09:54:40.311Z,0.38
2022-09-09T09:57:31.023Z,0.20
2022-09-09T10:00:24.003Z,0.30
2022-09-09T10:03:33.556Z,0.28
2022-09-09T10:06:36.135Z,1.00
2022-09-09T10:09:33.691Z,1.20
2022-09-09T10:12:29.458Z,0.35
2022-09-09T10:15:31.477Z,0.20
2022-09-09T10:18:23.787Z,0.30
2022-09-09T10:21:43.830Z,0.22
2022-09-09T10:24:47.595Z,0.40
2022-09-09T10:27:47.985Z,0.28
2022-09-09T10:30:50.082Z,0.20
2022-09-09T10:33:50.354Z,0.30
2022-09-09T10:36:43.443Z,0.30
2022-09-09T10:39:40.543Z,0.20
2022-09-09T10:42:32.458Z,0.20
2022-09-09T10:45:34.698Z,0.20
2022-09-09T10:48:55.798Z,0.20
2022-09-09T10:51:52.519Z,0.20
2022-09-09T10:54:58.171Z,0.30
2022-09-09T10:57:48.881Z,0.20
2022-09-09T11:00:46.692Z,0.20
2022-09-09T11:03:34.391Z,0.30
2022-09-09T11:06:25.673Z,0.20
2022-09-09T11:09:19.412Z,0.20
2022-09-09T11:12:08.051Z,0.30
2022-09-09T11:15:22.573Z,0.43
2022-09-09T11:18:13.198Z,0.20
2022-09-09T11:21:04.661Z,0.30
2022-09-09T11:23:57.281Z,0.30
2022-09-09T11:26:53.536Z,0.40
2022-09-09T11:30:03.674Z,0.30
2022-09-09T11:33:14.792Z,0.23
2022-09-09T11:36:35.758Z,0.20
2022-09-09T11:39:40.738Z,0.20
2022-09-09T11:42:26.202Z,0.40
2022-09-09T11:45:26.679Z,0.15
2022-09-09T11:48:27.650Z,0.20
2022-09-09T11:51:27.336Z,0.13
2022-09-09T11:54:32.209Z,0.20
2022-09-09T11:57:34.909Z,0.20
2022-09-09T12:00:51.040Z,0.22
2022-09-09T12:03:54.096Z,0.40
2022-09-09T12:07:14.074Z,0.50
2022-09-09T12:10:02.076Z,0.20
2022-09-09T12:12:48.064Z,0.30
2022-09-09T12:15:34.525Z,0.50
2022-09-09T12:18:45.412Z,0.63
2022-09-09T12:21:42.303Z,0.55
2022-09-09T12:24:49.099Z,0.40
2022-09-09T12:27:44.180Z,0.50
2022-09-09T12:30:48.275Z,0.55
2022-09-09T12:33:44.245Z,0.55
2022-09-09T12:36:34.251Z,0.60
2022-09-09T12:39:47.427Z,0.50
2022-09-09T12:42:37.889Z,0.60
2022-09-09T12:45:32.347Z,0.70
2022-09-09T12:48:21.235Z,0.80
2022-09-09T12:51:19.293Z,0.60
2022-09-09T12:54:06.285Z,0.68
2022-09-09T12:56:52.364Z,0.77
2022-09-09T12:59:43.564Z,0.50
2022-09-09T13:02:29.747Z,0.60
2022-09-09T13:05:22.407Z,0.60
2022-09-09T13:08:11.793Z,0.52
2022-09-09T13:11:04.110Z,0.60
2022-09-09T13:13:56.956Z,0.70
2022-09-09T13:16:43.330Z,0.70
2022-09-09T13:19:33.974Z,0.63
2022-09-09T13:22:34.316Z,0.70
2022-09-09T13:25:30.421Z,0.55
2022-09-09T13:28:25.605Z,0.65
2022-09-09T13:31:33.656Z,0.43
2022-09-09T13:34:53.429Z,0.60
2022-09-09T13:37:42.116Z,0.60
2022-09-09T13:40:28.588Z,0.77
2022-09-09T13:43:22.181Z,0.60
2022-09-09T13:46:36.463Z,0.70
2022-09-09T13:49:23.786Z,0.70
2022-09-09T13:52:15.327Z,0.65
2022-09-09T13:55:01.100Z,0.80
2022-09-09T13:58:01.774Z,0.70
2022-09-09T14:00:47.818Z,0.70
2022-09-09T14:03:34.814Z,0.70
2022-09-09T14:06:25.384Z,0.70
2022-09-09T14:09:16.848Z,0.80
2022-09-09T14:12:03.292Z,0.70
2022-09-09T14:14:50.599Z,0.50
2022-09-09T14:17:37.187Z,0.63
2022-09-09T14:20:22.863Z,0.80
2022-09-09T14:23:12.923Z,0.60
2022-09-09T14:25:59.561Z,0.63
2022-09-09T14:28:54.946Z,0.75
2022-09-09T14:31:41.667Z,0.70
2022-09-09T14:34:28.006Z,0.55
2022-09-09T14:37:14.224Z,0.68
2022-09-09T14:40:00.391Z,0.65
2022-09-09T14:43:12.225Z,1.10
2022-09-09T14:45:58.148Z,0.77
2022-09-09T14:48:49.491Z,0.70
2022-09-09T14:51:35.217Z,0.70
2022-09-09T14:54:22.251Z,0.60
2022-09-09T14:57:07.891Z,0.87
2022-09-09T14:59:54.439Z,0.70
2022-09-09T15:02:40.738Z,0.68
2022-09-09T15:05:27.259Z,0.70
2022-09-09T15:08:13.459Z,0.70
2022-09-09T15:11:03.847Z,0.77
2022-09-09T15:13:55.995Z,0.63
2022-09-09T15:16:42.251Z,0.60
2022-09-09T15:19:28.623Z,0.65
2022-09-09T15:22:15.160Z,0.65
2022-09-09T15:25:01.003Z,0.70
2022-09-09T15:27:46.538Z,0.73
2022-09-09T15:30:32.365Z,0.70
2022-09-09T15:33:18.469Z,0.57
2022-09-09T15:36:21.234Z,0.68
2022-09-09T15:39:16.654Z,0.68
2022-09-09T15:42:02.767Z,0.50
2022-09-09T15:44:48.571Z,0.60
2022-09-09T15:47:34.437Z,0.52
2022-09-09T15:50:20.921Z,0.90
2022-09-09T15:53:07.173Z,0.75
2022-09-09T15:55:56.822Z,0.73
2022-09-09T15:58:44.790Z,0.60
2022-09-09T16:01:31.456Z,0.47
2022-09-09T16:04:24.110Z,0.45
2022-09-09T16:07:10.386Z,0.75
2022-09-09T16:09:55.968Z,0.45
2022-09-09T16:12:41.744Z,0.60
2022-09-09T16:15:27.246Z,0.47
2022-09-09T16:18:13.410Z,0.73
2022-09-09T16:20:59.731Z,0.40
2022-09-09T16:23:46.674Z,0.75
2022-09-09T16:26:34.465Z,0.60
2022-09-09T16:29:22.632Z,0.40
2022-09-09T16:32:09.433Z,0.52
2022-09-09T16:34:55.678Z,0.80
2022-09-09T16:37:41.919Z,0.50
2022-09-09T16:40:27.671Z,0.57
2022-09-09T16:43:13.793Z,0.80
2022-09-09T16:46:01.513Z,0.60
2022-09-09T16:48:48.327Z,0.50
2022-09-09T16:51:40.010Z,0.53
2022-09-09T16:54:28.049Z,0.70
2022-09-09T16:57:13.519Z,0.40
2022-09-09T17:00:00.503Z,0.50
2022-09-09T17:02:46.213Z,0.40
2022-09-09T17:05:33.632Z,0.45
2022-09-09T17:08:19.236Z,0.50
2022-09-09T17:11:05.239Z,0.50
2022-09-09T17:13:52.950Z,0.60
2022-09-09T17:16:40.584Z,0.68
2022-09-09T17:19:27.326Z,0.85
2022-09-09T17:22:17.199Z,0.57
2022-09-09T17:25:04.194Z,0.60
2022-09-09T17:27:49.578Z,0.68
2022-09-09T17:30:36.175Z,0.50
2022-09-09T17:33:22.255Z,0.60
2022-09-09T17:36:12.106Z,0.65
2022-09-09T17:39:00.826Z,0.60
2022-09-09T17:41:47.063Z,0.70
2022-09-09T17:44:33.506Z,0.60
2022-09-09T17:47:19.594Z,0.80
2022-09-09T17:50:06.942Z,0.70
2022-09-09T17:52:52.807Z,1.25
2022-09-09T17:55:38.651Z,0.60
2022-09-09T17:58:25.166Z,0.80
2022-09-09T18:01:13.995Z,1.02
2022-09-09T18:04:03.324Z,0.77
2022-09-09T18:06:52.334Z,1.15
2022-09-09T18:09:39.136Z,1.10
2022-09-09T18:12:24.964Z,1.17
2022-09-09T18:15:12.718Z,1.17
2022-09-09T18:18:02.522Z,1.10
2022-09-09T18:21:01.880Z,0.90
2022-09-09T18:23:50.867Z,1.20
2022-09-09T18:26:37.922Z,1.40
2022-09-09T18:29:27.474Z,0.93
2022-09-09T18:32:14.933Z,1.30
2022-09-09T18:35:00.624Z,1.00
2022-09-09T18:37:48.300Z,1.00
2022-09-09T18:40:34.151Z,1.27
2022-09-09T18:43:20.055Z,1.13
2022-09-09T18:46:05.617Z,1.05
2022-09-09T18:48:51.787Z,1.42
2022-09-09T18:51:41.009Z,1.10
2022-09-09T18:54:33.230Z,1.20
2022-09-09T18:57:18.939Z,1.45
2022-09-09T19:00:06.602Z,1.20
2022-09-09T19:02:53.006Z,1.48
2022-09-09T19:05:38.458Z,1.77
2022-09-09T19:08:24.818Z,1.57
2022-09-09T19:11:22.417Z,1.52
2022-09-09T19:14:11.510Z,1.67
2022-09-09T19:16:57.096Z,1.75
2022-09-09T19:19:43.617Z,1.45
2022-09-09T19:22:29.597Z,1.80
2022-09-09T19:25:16.193Z,1.92
2022-09-09T19:28:03.747Z,1.77
2022-09-09T19:30:49.787Z,1.80
2022-09-09T19:33:37.194Z,2.05
2022-09-09T19:36:24.879Z,1.85
2022-09-09T19:39:11.426Z,1.67
2022-09-09T19:41:57.499Z,1.97
2022-09-09T19:44:43.656Z,1.73
2022-09-09T19:47:30.330Z,1.85
2022-09-09T19:50:16.594Z,2.15
2022-09-09T19:53:02.479Z,2.00
2022-09-09T19:55:52.107Z,1.95
2022-09-09T19:58:45.116Z,2.00
2022-09-09T20:01:37.919Z,2.10
2022-09-09T20:04:26.415Z,2.17
2022-09-09T20:07:12.418Z,2.50
2022-09-09T20:09:58.498Z,2.00
2022-09-09T20:12:43.753Z,2.10
2022-09-09T20:15:29.713Z,2.40
2022-09-09T20:18:15.583Z,2.15
2022-09-09T20:21:04.441Z,2.35
2022-09-09T20:23:51.346Z,2.50
2022-09-09T20:26:37.652Z,2.30
2022-09-09T20:29:25.941Z,2.38
2022-09-09T20:32:12.374Z,2.13
2022-09-09T20:34:58.403Z,2.38
2022-09-09T20:37:44.381Z,2.35
2022-09-09T20:40:33.490Z,2.75
2022-09-09T20:43:20.321Z,2.70
2022-09-09T20:46:06.582Z,2.50
2022-09-09T20:49:00.816Z,2.60
2022-09-09T20:51:50.592Z,3.10
2022-09-09T20:54:38.800Z,3.20
2022-09-09T20:57:24.888Z,3.20
2022-09-09T21:00:11.528Z,3.63
2022-09-09T21:02:57.560Z,3.30
2022-09-09T21:05:43.687Z,3.30
2022-09-09T21:08:30.316Z,3.53
2022-09-09T21:11:17.576Z,3.23
2022-09-09T21:14:04.903Z,3.53
2022-09-09T21:16:50.793Z,3.65
2022-09-09T21:19:36.562Z,3.28
2022-09-09T21:22:23.067Z,2.67
2022-09-09T21:25:09.497Z,2.95
2022-09-09T21:27:55.453Z,3.35
2022-09-09T21:30:44.098Z,2.90
2022-09-09T21:33:30.393Z,2.67
2022-09-09T21:36:17.015Z,3.08
2022-09-09T21:39:03.174Z,2.95
2022-09-09T21:41:49.165Z,2.80
2022-09-09T21:44:34.943Z,2.97
2022-09-09T21:47:20.742Z,3.40
2022-09-09T21:50:06.919Z,3.00
2022-09-09T21:52:53.306Z,2.80
2022-09-09T21:55:41.729Z,2.88
2022-09-09T21:58:27.650Z,2.80
2022-09-09T22:01:18.801Z,3.20
2022-09-09T22:04:07.422Z,2.80
2022-09-09T22:06:53.722Z,3.08
2022-09-09T22:09:39.243Z,2.97
2022-09-09T22:12:26.064Z,3.00
2022-09-09T22:15:12.631Z,2.70
2022-09-09T22:18:03.265Z,2.92
2022-09-09T22:20:49.264Z,2.97
2022-09-09T22:23:36.707Z,2.63
2022-09-09T22:26:23.395Z,2.60
2022-09-09T22:29:09.891Z,2.55
2022-09-09T22:31:56.258Z,3.00
2022-09-09T22:34:42.122Z,2.92
2022-09-09T22:37:27.941Z,2.92
2022-09-09T22:40:14.473Z,2.92
2022-09-09T22:43:00.751Z,2.67
2022-09-09T22:45:47.786Z,2.40
2022-09-09T22:48:34.708Z,2.47
2022-09-09T22:51:20.072Z,2.80
2022-09-09T22:54:07.907Z,2.60
2022-09-09T22:56:53.798Z,2.25
2022-09-09T22:59:40.179Z,2.53
2022-09-09T23:02:26.599Z,2.50
2022-09-09T23:05:12.700Z,2.42
2022-09-09T23:07:58.371Z,2.53
2022-09-09T23:10:45.321Z,2.35
2022-09-09T23:13:33.109Z,2.22
2022-09-09T23:16:22.493Z,2.17
2022-09-09T23:19:11.761Z,2.30
2022-09-09T23:21:58.486Z,2.00
2022-09-09T23:24:43.900Z,1.85
2022-09-09T23:27:30.258Z,1.95
2022-09-09T23:30:16.136Z,1.50
2022-09-09T23:33:02.570Z,1.67
2022-09-09T23:35:48.032Z,1.23
2022-09-09T23:38:34.897Z,1.35
2022-09-09T23:41:21.336Z,0.90
2022-09-09T23:44:07.571Z,0.93
2022-09-09T23:46:53.407Z,0.90
2022-09-09T23:49:39.653Z,0.85
2022-09-09T23:52:26.605Z,0.73
2022-09-09T23:55:12.570Z,0.60
2022-09-09T23:57:58.663Z,0.70
